createdAt,value
2022-10-13T00:00:06.997Z,1.00
2022-10-13T00:02:33.432Z,0.80
2022-10-13T00:04:59.902Z,1.05
2022-10-13T00:07:26.361Z,1.00
2022-10-13T00:09:52.800Z,0.75
2022-10-13T00:12:19.415Z,1.20
2022-10-13T00:14:46.169Z,1.10
2022-10-13T00:17:12.637Z,1.15
2022-10-13T00:19:39.094Z,0.90
2022-10-13T00:22:05.588Z,0.80
2022-10-13T00:24:32.102Z,0.93
2022-10-13T00:26:58.559Z,0.80
2022-10-13T00:29:25.231Z,1.10
2022-10-13T00:31:51.686Z,0.88
2022-10-13T00:34:18.169Z,0.90
2022-10-13T00:36:44.625Z,1.38
2022-10-13T00:39:11.124Z,0.80
2022-10-13T00:41:37.584Z,0.85
2022-10-13T00:44:23.980Z,0.98
2022-10-13T00:46:50.466Z,0.90
2022-10-13T00:49:16.925Z,0.77
2022-10-13T00:51:46.533Z,1.10
2022-10-13T00:54:17.608Z,1.20
2022-10-13T00:56:45.678Z,0.77
2022-10-13T00:59:23.442Z,1.02
2022-10-13T01:01:51.268Z,1.10
2022-10-13T01:04:20.164Z,0.77
2022-10-13T01:06:46.672Z,0.95
2022-10-13T01:09:13.440Z,0.77
2022-10-13T01:12:13.765Z,0.82
2022-10-13T01:14:53.032Z,0.75
2022-10-13T01:17:36.877Z,1.02
2022-10-13T01:20:42.572Z,0.77
2022-10-13T01:23:23.693Z,1.10
2022-10-13T01:26:15.038Z,0.98
2022-10-13T01:29:03.134Z,0.90
2022-10-13T01:31:52.664Z,0.52
2022-10-13T01:34:44.432Z,1.10
2022-10-13T01:37:29.472Z,1.05
2022-10-13T01:40:10.249Z,1.10
2022-10-13T01:43:07.640Z,1.48
2022-10-13T01:45:47.332Z,1.10
2022-10-13T01:48:16.664Z,0.80
2022-10-13T01:50:44.582Z,1.10
2022-10-13T01:53:13.736Z,0.77
2022-10-13T01:55:58.581Z,0.73
2022-10-13T01:58:28.142Z,0.85
2022-10-13T02:01:19.417Z,1.05
2022-10-13T02:04:00.851Z,0.80
2022-10-13T02:06:36.084Z,0.98
2022-10-13T02:09:14.486Z,0.70
2022-10-13T02:11:51.341Z,0.90
2022-10-13T02:14:30.264Z,0.85
2022-10-13T02:17:01.472Z,0.70
2022-10-13T02:19:28.793Z,0.90
2022-10-13T02:24:23.129Z,0.82
2022-10-13T02:26:51.276Z,0.82
2022-10-13T02:29:19.001Z,0.90
2022-10-13T02:31:46.609Z,1.02
2022-10-13T02:34:14.115Z,0.80
2022-10-13T02:36:41.134Z,0.85
2022-10-13T02:39:11.010Z,0.88
2022-10-13T02:41:38.261Z,0.90
2022-10-13T02:44:05.849Z,0.80
2022-10-13T02:46:32.407Z,0.70
2022-10-13T02:48:58.882Z,0.77
2022-10-13T02:51:25.334Z,0.80
2022-10-13T02:53:51.830Z,0.77
2022-10-13T02:56:18.995Z,0.80
2022-10-13T02:58:45.450Z,0.88
2022-10-13T03:01:14.702Z,0.77
2022-10-13T03:03:41.537Z,0.80
2022-10-13T03:06:08.301Z,0.80
2022-10-13T03:08:35.297Z,0.70
2022-10-13T03:11:02.053Z,0.93
2022-10-13T03:13:28.565Z,1.40
2022-10-13T03:15:55.029Z,0.70
2022-10-13T03:18:21.479Z,0.80
2022-10-13T03:20:58.505Z,1.00
2022-10-13T03:23:26.023Z,0.73
2022-10-13T03:25:52.716Z,0.50
2022-10-13T03:28:19.254Z,0.82
2022-10-13T03:30:45.872Z,0.60
2022-10-13T03:33:12.650Z,0.93
2022-10-13T03:35:39.305Z,0.70
2022-10-13T03:38:06.108Z,1.02
2022-10-13T03:40:32.615Z,0.63
2022-10-13T03:42:59.056Z,0.80
2022-10-13T03:45:25.560Z,0.90
2022-10-13T03:47:52.013Z,0.90
2022-10-13T03:50:18.658Z,0.63
2022-10-13T03:52:45.104Z,0.82
2022-10-13T03:55:11.564Z,0.88
2022-10-13T03:57:38.017Z,0.80
2022-10-13T04:00:10.600Z,0.80
2022-10-13T04:02:37.041Z,0.93
2022-10-13T04:05:03.669Z,0.95
2022-10-13T04:07:30.118Z,0.93
2022-10-13T04:09:56.577Z,0.75
2022-10-13T04:12:23.450Z,0.93
2022-10-13T04:14:50.151Z,0.93
2022-10-13T04:17:16.632Z,0.80
2022-10-13T04:19:43.188Z,1.00
2022-10-13T04:22:09.670Z,0.88
2022-10-13T04:24:36.396Z,0.90
2022-10-13T04:27:03.159Z,0.80
2022-10-13T04:29:29.637Z,0.70
2022-10-13T04:31:56.147Z,0.70
2022-10-13T04:34:22.608Z,0.85
2022-10-13T04:36:51.968Z,0.75
2022-10-13T04:39:18.694Z,0.80
2022-10-13T04:41:45.622Z,0.85
2022-10-13T04:44:12.101Z,0.93
2022-10-13T04:46:38.722Z,0.90
2022-10-13T04:49:05.164Z,0.70
2022-10-13T04:51:31.709Z,0.80
2022-10-13T04:54:01.066Z,0.80
2022-10-13T04:56:28.278Z,0.60
2022-10-13T04:58:54.851Z,0.88
2022-10-13T05:01:24.390Z,0.95
2022-10-13T05:04:02.341Z,0.98
2022-10-13T05:06:35.113Z,0.90
2022-10-13T05:09:02.006Z,0.73
2022-10-13T05:11:29.760Z,0.77
2022-10-13T05:13:57.392Z,1.10
2022-10-13T05:16:25.195Z,1.10
2022-10-13T05:18:54.632Z,0.95
2022-10-13T05:21:23.890Z,0.82
2022-10-13T05:23:54.302Z,0.80
2022-10-13T05:26:21.802Z,0.98
2022-10-13T05:28:48.300Z,1.05
2022-10-13T05:31:22.301Z,0.93
2022-10-13T05:33:49.965Z,0.93
2022-10-13T05:36:19.298Z,0.90
2022-10-13T05:38:50.529Z,0.98
2022-10-13T05:41:17.025Z,0.68
2022-10-13T05:43:43.673Z,0.80
2022-10-13T05:46:10.849Z,1.00
2022-10-13T05:48:37.741Z,0.95
2022-10-13T05:51:10.120Z,1.20
2022-10-13T05:53:41.464Z,1.10
2022-10-13T05:58:46.141Z,0.90
2022-10-13T06:01:17.729Z,0.85
2022-10-13T06:03:45.171Z,0.90
2022-10-13T06:06:11.693Z,0.82
2022-10-13T06:08:38.751Z,0.80
2022-10-13T06:11:06.864Z,1.00
2022-10-13T06:13:33.820Z,1.02
2022-10-13T06:16:00.354Z,0.88
2022-10-13T06:18:26.800Z,1.10
2022-10-13T06:20:53.270Z,0.90
2022-10-13T06:23:19.755Z,0.80
2022-10-13T06:25:50.736Z,0.82
2022-10-13T06:28:19.046Z,1.00
2022-10-13T06:30:53.735Z,0.93
2022-10-13T06:33:20.982Z,0.80
2022-10-13T06:35:47.467Z,0.80
2022-10-13T06:38:14.178Z,0.85
2022-10-13T06:40:40.629Z,0.80
2022-10-13T06:43:07.096Z,1.10
2022-10-13T06:45:33.553Z,1.23
2022-10-13T06:48:00.589Z,0.98
2022-10-13T06:50:27.214Z,1.08
2022-10-13T06:52:56.420Z,0.90
2022-10-13T06:55:23.349Z,1.00
2022-10-13T06:57:49.845Z,0.77
2022-10-13T07:00:18.042Z,0.80
2022-10-13T07:02:44.493Z,1.10
2022-10-13T07:05:10.986Z,1.13
2022-10-13T07:07:37.448Z,1.33
2022-10-13T07:10:04.161Z,1.10
2022-10-13T07:12:31.001Z,2.03
2022-10-13T07:14:57.470Z,1.40
2022-10-13T07:17:24.009Z,1.52
2022-10-13T07:19:51.365Z,1.48
2022-10-13T07:22:17.900Z,1.23
2022-10-13T07:24:44.801Z,1.63
2022-10-13T07:27:11.260Z,1.58
2022-10-13T07:29:37.777Z,1.70
2022-10-13T07:32:04.564Z,1.65
2022-10-13T07:34:31.008Z,1.60
2022-10-13T07:36:57.469Z,1.73
2022-10-13T07:39:23.900Z,1.50
2022-10-13T07:41:51.367Z,1.63
2022-10-13T07:44:18.204Z,1.58
2022-10-13T07:46:44.753Z,1.40
2022-10-13T07:49:15.263Z,1.80
2022-10-13T07:51:44.403Z,1.83
2022-10-13T07:54:11.117Z,1.45
2022-10-13T07:56:38.367Z,1.90
2022-10-13T08:01:32.211Z,1.30
2022-10-13T08:03:59.262Z,1.50
2022-10-13T08:06:26.041Z,1.58
2022-10-13T08:08:53.383Z,1.55
2022-10-13T08:13:51.101Z,1.27
2022-10-13T08:16:18.402Z,1.58
2022-10-13T08:21:57.792Z,1.42
2022-10-13T08:24:09.049Z,1.83
2022-10-13T08:26:35.529Z,1.23
2022-10-13T08:29:20.190Z,1.45
2022-10-13T08:31:47.115Z,1.67
2022-10-13T08:34:13.693Z,1.50
2022-10-13T08:36:40.531Z,2.00
2022-10-13T08:39:07.299Z,1.70
2022-10-13T08:41:39.291Z,1.70
2022-10-13T08:47:32.316Z,1.40
2022-10-13T08:50:02.374Z,1.63
2022-10-13T08:52:43.506Z,1.52
2022-10-13T08:55:28.444Z,1.80
2022-10-13T08:57:55.077Z,1.67
2022-10-13T09:00:22.005Z,1.63
2022-10-13T09:02:49.688Z,1.50
2022-10-13T09:05:34.739Z,1.48
2022-10-13T09:08:02.580Z,1.58
2022-10-13T09:10:29.227Z,1.50
2022-10-13T09:12:56.333Z,1.70
2022-10-13T09:15:22.875Z,1.42
2022-10-13T09:18:09.941Z,1.35
2022-10-13T09:20:36.392Z,1.50
2022-10-13T09:23:06.319Z,1.33
2022-10-13T09:25:48.391Z,1.40
2022-10-13T09:28:29.880Z,1.67
2022-10-13T09:31:13.239Z,1.42
2022-10-13T09:33:40.645Z,1.65
2022-10-13T09:36:13.454Z,1.50
2022-10-13T09:38:42.245Z,1.50
2022-10-13T09:41:08.661Z,1.60
2022-10-13T09:43:42.308Z,1.58
2022-10-13T09:46:19.737Z,1.10
2022-10-13T09:48:51.525Z,1.33
2022-10-13T09:51:38.841Z,1.33
2022-10-13T09:54:06.446Z,1.20
2022-10-13T09:56:46.418Z,1.35
2022-10-13T09:59:33.920Z,1.35
2022-10-13T10:02:28.369Z,1.30
2022-10-13T10:04:58.941Z,1.30
2022-10-13T10:07:30.206Z,1.48
2022-10-13T10:10:25.945Z,1.15
2022-10-13T10:12:52.583Z,1.23
2022-10-13T10:15:30.130Z,1.40
2022-10-13T10:18:03.873Z,1.48
2022-10-13T10:20:41.834Z,1.15
2022-10-13T10:23:18.900Z,1.25
2022-10-13T10:25:54.000Z,1.50
2022-10-13T10:28:32.323Z,1.02
2022-10-13T10:31:16.156Z,1.30
2022-10-13T10:33:54.717Z,1.17
2022-10-13T10:36:34.434Z,1.10
2022-10-13T10:39:21.172Z,1.20
2022-10-13T10:42:08.490Z,1.17
2022-10-13T10:44:38.857Z,1.13
2022-10-13T10:47:23.299Z,1.17
2022-10-13T10:49:54.208Z,1.17
2022-10-13T10:52:33.261Z,1.40
2022-10-13T10:55:21.486Z,1.20
2022-10-13T10:58:06.631Z,1.20
2022-10-13T11:00:42.014Z,1.20
2022-10-13T11:03:20.656Z,1.25
2022-10-13T11:06:03.374Z,1.33
2022-10-13T11:08:43.049Z,1.00
2022-10-13T11:11:33.375Z,1.20
2022-10-13T11:14:02.992Z,1.08
2022-10-13T11:16:35.372Z,1.23
2022-10-13T11:19:22.680Z,0.93
2022-10-13T11:21:55.220Z,1.40
2022-10-13T11:24:33.740Z,1.20
2022-10-13T11:27:10.495Z,0.80
2022-10-13T11:29:45.827Z,1.13
2022-10-13T11:32:27.582Z,1.17
2022-10-13T11:35:06.998Z,1.10
2022-10-13T11:38:00.867Z,1.30
2022-10-13T11:40:33.852Z,1.15
2022-10-13T11:45:58.970Z,1.05
2022-10-13T11:48:28.401Z,1.00
2022-10-13T11:51:04.854Z,0.90
2022-10-13T11:53:48.625Z,0.90
2022-10-13T11:56:39.589Z,1.08
2022-10-13T11:59:20.997Z,1.10
2022-10-13T12:01:47.471Z,0.98
2022-10-13T12:04:15.522Z,1.00
2022-10-13T12:06:42.260Z,0.90
2022-10-13T12:09:20.260Z,0.80
2022-10-13T12:11:55.392Z,1.00
2022-10-13T12:17:23.967Z,1.10
2022-10-13T12:19:53.265Z,1.00
2022-10-13T12:22:20.095Z,0.93
2022-10-13T12:25:02.892Z,0.90
2022-10-13T12:27:34.883Z,1.05
2022-10-13T12:30:02.733Z,1.02
2022-10-13T12:32:31.642Z,1.10
2022-10-13T12:35:15.816Z,1.15
2022-10-13T12:37:42.409Z,1.08
2022-10-13T12:40:15.341Z,1.20
2022-10-13T12:42:43.029Z,1.10
2022-10-13T12:45:18.714Z,1.00
2022-10-13T12:47:45.096Z,0.98
2022-10-13T12:50:29.833Z,1.02
2022-10-13T12:53:24.621Z,0.90
2022-10-13T12:56:01.927Z,0.90
2022-10-13T12:58:35.921Z,1.20
2022-10-13T13:01:14.411Z,1.25
2022-10-13T13:03:43.501Z,1.05
2022-10-13T13:06:13.048Z,0.93
2022-10-13T13:08:43.372Z,0.77
2022-10-13T13:11:35.404Z,0.88
2022-10-13T13:14:39.222Z,0.80
2022-10-13T13:19:33.374Z,0.70
2022-10-13T13:21:59.947Z,0.90
2022-10-13T13:24:35.999Z,0.98
2022-10-13T13:27:18.260Z,0.80
2022-10-13T13:29:45.588Z,0.70
2022-10-13T13:32:14.201Z,1.13
2022-10-13T13:34:41.005Z,1.05
2022-10-13T13:37:14.033Z,0.73
2022-10-13T13:39:40.513Z,0.77
2022-10-13T13:42:12.588Z,1.00
2022-10-13T13:44:39.029Z,1.17
2022-10-13T13:47:08.979Z,1.13
2022-10-13T13:49:35.439Z,0.80
2022-10-13T13:52:01.903Z,0.73
2022-10-13T13:54:28.348Z,0.70
2022-10-13T13:56:58.721Z,0.90
2022-10-13T13:59:25.438Z,1.30
2022-10-13T14:01:51.958Z,0.73
2022-10-13T14:04:18.435Z,0.68
2022-10-13T14:06:45.020Z,0.90
2022-10-13T14:09:11.467Z,0.82
2022-10-13T14:11:37.985Z,0.82
2022-10-13T14:14:04.458Z,0.85
2022-10-13T14:16:30.921Z,0.70
2022-10-13T14:18:57.442Z,0.88
2022-10-13T14:21:23.906Z,0.70
2022-10-13T14:23:50.401Z,0.70
2022-10-13T14:26:16.921Z,0.90
2022-10-13T14:28:44.752Z,0.63
2022-10-13T14:31:12.347Z,0.95
2022-10-13T14:33:38.973Z,0.63
2022-10-13T14:36:07.043Z,0.60
2022-10-13T14:38:34.609Z,1.00
2022-10-13T14:41:05.157Z,0.90
2022-10-13T14:43:32.362Z,0.70
2022-10-13T14:46:06.405Z,0.68
2022-10-13T14:48:34.531Z,0.80
2022-10-13T14:51:11.007Z,0.88
2022-10-13T14:53:40.427Z,0.77
2022-10-13T14:56:23.269Z,0.70
2022-10-13T14:58:51.194Z,0.80
2022-10-13T15:01:18.542Z,0.90
2022-10-13T15:06:16.693Z,0.57
2022-10-13T15:08:44.213Z,0.93
2022-10-13T15:11:11.747Z,0.65
2022-10-13T15:13:39.022Z,0.73
2022-10-13T15:16:06.871Z,0.70
2022-10-13T15:18:36.102Z,0.80
2022-10-13T15:21:02.859Z,0.63
2022-10-13T15:23:29.396Z,0.75
2022-10-13T15:25:58.177Z,0.80
2022-10-13T15:28:28.316Z,0.88
2022-10-13T15:30:55.581Z,1.02
2022-10-13T15:35:50.718Z,0.85
2022-10-13T15:38:19.894Z,0.60
2022-10-13T15:40:46.885Z,0.68
2022-10-13T15:43:13.912Z,0.63
2022-10-13T15:45:40.986Z,0.65
2022-10-13T15:48:09.118Z,0.77
2022-10-13T15:50:39.263Z,0.70
2022-10-13T15:53:05.828Z,0.63
2022-10-13T15:55:33.041Z,0.82
2022-10-13T15:57:59.502Z,1.00
2022-10-13T16:00:26.135Z,0.80
2022-10-13T16:02:52.644Z,0.75
2022-10-13T16:05:19.695Z,0.85
2022-10-13T16:07:46.245Z,0.80
2022-10-13T16:10:14.551Z,0.70
2022-10-13T16:12:48.383Z,0.70
2022-10-13T16:15:17.648Z,0.80
2022-10-13T16:17:46.965Z,0.57
2022-10-13T16:20:13.899Z,0.73
2022-10-13T16:22:40.348Z,0.80
2022-10-13T16:25:07.381Z,0.75
2022-10-13T16:27:33.812Z,0.82
2022-10-13T16:30:00.313Z,1.50
2022-10-13T16:32:26.797Z,1.10
2022-10-13T16:34:53.352Z,0.75
2022-10-13T16:37:20.258Z,0.82
2022-10-13T16:39:51.506Z,1.05
2022-10-13T16:42:18.492Z,0.70
2022-10-13T16:44:45.074Z,0.60
2022-10-13T16:47:14.739Z,0.82
2022-10-13T16:49:44.585Z,0.70
2022-10-13T16:52:11.124Z,0.52
2022-10-13T16:54:37.576Z,0.85
2022-10-13T16:57:04.113Z,1.13
2022-10-13T16:59:30.686Z,0.93
2022-10-13T17:01:57.919Z,1.00
2022-10-13T17:04:24.689Z,1.50
2022-10-13T17:06:51.180Z,1.05
2022-10-13T17:09:17.690Z,1.00
2022-10-13T17:11:44.189Z,1.10
2022-10-13T17:14:10.948Z,1.00
2022-10-13T17:16:37.584Z,0.88
2022-10-13T17:19:04.273Z,0.82
2022-10-13T17:21:31.961Z,0.85
2022-10-13T17:23:58.457Z,0.85
2022-10-13T17:26:25.256Z,0.82
2022-10-13T17:28:51.866Z,1.02
2022-10-13T17:31:23.377Z,0.98
2022-10-13T17:33:50.848Z,0.90
2022-10-13T17:36:21.715Z,0.90
2022-10-13T17:38:49.284Z,0.70
2022-10-13T17:41:16.660Z,1.42
2022-10-13T17:46:35.647Z,0.95
2022-10-13T17:49:04.058Z,1.10
2022-10-13T17:51:30.583Z,1.10
2022-10-13T17:53:58.868Z,1.13
2022-10-13T17:56:25.881Z,1.00
2022-10-13T17:58:52.736Z,1.10
2022-10-13T18:01:21.663Z,1.13
2022-10-13T18:03:51.116Z,0.90
2022-10-13T18:06:18.487Z,0.90
2022-10-13T18:08:45.010Z,1.13
2022-10-13T18:11:15.139Z,1.17
2022-10-13T18:13:43.379Z,1.30
2022-10-13T18:16:16.334Z,1.92
2022-10-13T18:18:44.936Z,1.38
2022-10-13T18:21:13.871Z,1.17
2022-10-13T18:23:41.436Z,1.20
2022-10-13T18:26:12.082Z,1.05
2022-10-13T18:28:40.453Z,1.23
2022-10-13T18:31:21.732Z,1.35
2022-10-13T18:33:48.374Z,1.30
2022-10-13T18:36:23.355Z,1.23
2022-10-13T18:38:50.861Z,1.23
2022-10-13T18:41:18.338Z,1.10
2022-10-13T18:43:44.788Z,1.00
2022-10-13T18:46:11.528Z,1.13
2022-10-13T18:48:38.314Z,0.90
2022-10-13T18:51:10.589Z,1.00
2022-10-13T18:53:38.778Z,1.20
2022-10-13T18:56:08.047Z,1.50
2022-10-13T18:58:35.125Z,1.40
2022-10-13T19:01:03.183Z,1.33
2022-10-13T19:03:31.713Z,1.23
2022-10-13T19:05:58.203Z,1.50
2022-10-13T19:08:25.468Z,1.40
2022-10-13T19:13:18.466Z,1.45
2022-10-13T19:15:44.994Z,1.17
2022-10-13T19:18:12.076Z,1.13
2022-10-13T19:20:38.714Z,1.17
2022-10-13T19:23:05.244Z,1.20
2022-10-13T19:25:32.304Z,1.20
2022-10-13T19:27:58.952Z,1.02
2022-10-13T19:30:26.566Z,1.00
2022-10-13T19:32:53.137Z,1.10
2022-10-13T19:35:19.717Z,1.00
2022-10-13T19:37:46.205Z,1.13
2022-10-13T19:40:12.661Z,1.13
2022-10-13T19:42:39.129Z,0.98
2022-10-13T19:45:06.200Z,1.23
2022-10-13T19:47:32.811Z,1.63
2022-10-13T19:49:59.239Z,1.52
2022-10-13T19:52:25.800Z,1.52
2022-10-13T19:54:52.385Z,1.33
2022-10-13T19:57:19.358Z,1.25
2022-10-13T19:59:47.813Z,1.45
2022-10-13T20:02:15.726Z,1.17
2022-10-13T20:04:42.182Z,1.50
2022-10-13T20:07:08.678Z,1.23
2022-10-13T20:09:35.140Z,1.10
2022-10-13T20:12:01.639Z,1.23
2022-10-13T20:14:28.143Z,1.00
2022-10-13T20:16:56.838Z,1.20
2022-10-13T20:19:23.277Z,1.23
2022-10-13T20:21:52.522Z,1.08
2022-10-13T20:24:21.500Z,1.40
2022-10-13T20:26:47.966Z,1.40
2022-10-13T20:29:15.345Z,1.10
2022-10-13T20:34:10.120Z,0.95
2022-10-13T20:36:39.010Z,1.10
2022-10-13T20:39:06.365Z,1.70
2022-10-13T20:41:32.903Z,1.27
2022-10-13T20:44:00.634Z,1.25
2022-10-13T20:46:27.157Z,1.30
2022-10-13T20:49:11.384Z,1.42
2022-10-13T20:51:39.939Z,1.30
2022-10-13T20:54:06.469Z,1.15
2022-10-13T20:56:33.247Z,1.08
2022-10-13T20:59:04.821Z,1.08
2022-10-13T21:01:31.442Z,1.30
2022-10-13T21:03:58.405Z,1.17
2022-10-13T21:06:25.924Z,1.30
2022-10-13T21:08:53.353Z,1.75
2022-10-13T21:11:21.691Z,1.23
2022-10-13T21:13:49.384Z,1.20
2022-10-13T21:16:21.861Z,1.40
2022-10-13T21:18:49.789Z,1.35
2022-10-13T21:21:18.674Z,1.15
2022-10-13T21:23:46.162Z,1.40
2022-10-13T21:26:15.222Z,1.30
2022-10-13T21:28:44.134Z,1.23
2022-10-13T21:31:13.200Z,1.08
2022-10-13T21:33:41.230Z,0.98
2022-10-13T21:36:19.792Z,1.05
2022-10-13T21:38:47.341Z,1.35
2022-10-13T21:41:14.940Z,0.95
2022-10-13T21:43:41.469Z,1.00
2022-10-13T21:46:12.420Z,1.08
2022-10-13T21:48:39.407Z,0.80
2022-10-13T21:51:14.905Z,1.10
2022-10-13T21:53:41.657Z,0.95
2022-10-13T21:56:11.508Z,1.13
2022-10-13T21:58:38.670Z,0.90
2022-10-13T22:01:06.108Z,0.80
2022-10-13T22:03:34.032Z,1.08
2022-10-13T22:06:08.925Z,0.85
2022-10-13T22:08:38.620Z,0.80
2022-10-13T22:11:07.434Z,1.02
2022-10-13T22:13:34.151Z,1.15
2022-10-13T22:16:06.234Z,1.08
2022-10-13T22:18:32.753Z,1.00
2022-10-13T22:21:03.443Z,1.15
2022-10-13T22:23:30.555Z,0.88
2022-10-13T22:25:57.252Z,0.95
2022-10-13T22:28:24.290Z,1.15
2022-10-13T22:30:52.192Z,1.10
2022-10-13T22:33:19.298Z,1.00
2022-10-13T22:35:46.787Z,0.80
2022-10-13T22:38:14.673Z,0.70
2022-10-13T22:40:41.688Z,0.88
2022-10-13T22:43:08.556Z,1.00
2022-10-13T22:45:35.050Z,0.90
2022-10-13T22:48:02.199Z,0.93
2022-10-13T22:50:29.143Z,0.65
2022-10-13T22:52:55.629Z,0.55
2022-10-13T22:55:22.217Z,1.00
2022-10-13T22:57:48.693Z,1.10
2022-10-13T23:00:16.152Z,0.85
2022-10-13T23:02:42.644Z,0.90
2022-10-13T23:05:09.260Z,0.90
2022-10-13T23:07:35.789Z,0.88
2022-10-13T23:10:02.272Z,0.90
2022-10-13T23:12:28.721Z,1.10
2022-10-13T23:14:55.229Z,1.00
2022-10-13T23:17:22.004Z,0.90
2022-10-13T23:19:48.736Z,0.85
2022-10-13T23:22:15.185Z,1.13
2022-10-13T23:24:41.625Z,0.82
2022-10-13T23:27:08.081Z,0.80
2022-10-13T23:29:34.559Z,1.08
2022-10-13T23:32:01.323Z,1.10
2022-10-13T23:34:29.198Z,0.80
2022-10-13T23:36:55.813Z,0.80
2022-10-13T23:39:22.451Z,0.88
2022-10-13T23:41:49.116Z,0.80
2022-10-13T23:44:15.586Z,0.75
2022-10-13T23:46:42.035Z,1.02
2022-10-13T23:49:11.308Z,0.85
2022-10-13T23:51:37.762Z,0.55
2022-10-13T23:54:04.285Z,0.90
2022-10-13T23:56:30.737Z,1.00
2022-10-13T23:58:57.199Z,0.90
